Time;durP1;ratioP1;P1;durP2;ratioP2;P2;SDS_P1;SDS_P2;PMS_P1;PMS_P2;Temp;Humidity;BMP_temperature;BMP_pressure;BME280_temperature;BME280_humidity;BME280_pressure;Samples;Min_cycle;Max_cycle;Signal;HPM_P1;HPM_P2
2021/03/23 00:01:29;;;;;;;9.60;3.17;;;6.70;65.60;;;;;;5115790;28;20094;-37
2021/03/23 00:03:54;;;;;;;3.00;2.38;;;6.50;65.70;;;;;;5116059;28;20118;-37
2021/03/23 00:06:23;;;;;;;4.75;2.85;;;6.40;65.90;;;;;;5116460;27;20400;-37
2021/03/23 00:08:54;;;;;;;7.35;3.70;;;6.40;66.00;;;;;;5115918;28;20070;-35
2021/03/23 00:11:37;;;;;;;4.40;2.88;;;6.40;65.90;;;;;;5115580;28;20043;-37
2021/03/23 00:14:07;;;;;;;4.65;3.17;;;6.50;66.00;;;;;;5115625;28;20049;-37
2021/03/23 00:16:39;;;;;;;6.10;2.80;;;6.40;65.90;;;;;;5115452;28;20033;-37
2021/03/23 00:19:06;;;;;;;5.68;2.63;;;6.30;66.60;;;;;;5114179;28;20023;-36
2021/03/23 00:21:32;;;;;;;4.90;2.33;;;6.30;66.90;;;;;;5115583;28;20467;-37
2021/03/23 00:23:58;;;;;;;3.83;2.72;;;6.30;66.80;;;;;;5115392;28;20042;-37
2021/03/23 00:26:24;;;;;;;3.65;2.67;;;6.30;66.30;;;;;;5115216;28;20540;-36
2021/03/23 00:28:52;;;;;;;3.97;2.83;;;6.30;66.10;;;;;;5116006;28;20028;-37
2021/03/23 00:31:21;;;;;;;6.93;4.03;;;6.50;65.80;;;;;;5115236;28;20511;-37
2021/03/23 00:33:47;;;;;;;8.52;4.00;;;6.60;66.20;;;;;;5115222;28;20547;-36
2021/03/23 00:36:19;;;;;;;4.97;2.85;;;6.50;66.20;;;;;;5115069;28;20047;-36
2021/03/23 00:38:45;;;;;;;6.40;2.78;;;6.40;66.30;;;;;;5114993;28;20024;-37
2021/03/23 00:41:12;;;;;;;6.40;3.97;;;6.40;66.20;;;;;;5115370;28;20027;-37
2021/03/23 00:43:39;;;;;;;7.22;3.10;;;6.40;67.30;;;;;;5115046;28;20031;-37
2021/03/23 00:46:05;;;;;;;5.75;3.53;;;6.40;67.60;;;;;;5114994;27;20045;-37
2021/03/23 00:48:31;;;;;;;5.40;3.20;;;6.50;66.60;;;;;;5114846;28;20051;-37
2021/03/23 00:50:57;;;;;;;7.53;3.00;;;6.60;66.30;;;;;;5114842;28;20379;-36
2021/03/23 00:53:22;;;;;;;4.07;2.95;;;6.50;66.60;;;;;;5113464;28;20127;-36
2021/03/23 00:55:49;;;;;;;4.93;3.20;;;6.70;65.90;;;;;;5115020;28;20023;-36
2021/03/23 00:58:15;;;;;;;5.05;3.50;;;6.70;65.90;;;;;;5115028;28;20035;-37
2021/03/23 01:00:40;;;;;;;6.15;3.78;;;6.40;67.00;;;;;;5115387;28;20020;-36
2021/03/23 01:03:06;;;;;;;5.65;3.40;;;6.30;67.20;;;;;;5114641;28;20073;-36
2021/03/23 01:05:33;;;;;;;7.10;4.22;;;6.40;66.70;;;;;;5114581;28;20030;-36
2021/03/23 01:07:59;;;;;;;6.63;3.90;;;6.50;66.10;;;;;;5114586;28;20020;-35
2021/03/23 01:10:27;;;;;;;3.95;3.28;;;6.60;66.10;;;;;;5114598;28;20019;-36
2021/03/23 01:12:53;;;;;;;5.88;4.20;;;6.50;66.10;;;;;;5114509;28;20023;-36
2021/03/23 01:15:23;;;;;;;5.28;4.05;;;6.50;65.80;;;;;;5114363;28;20387;-36
2021/03/23 01:17:48;;;;;;;5.65;4.70;;;6.60;66.00;;;;;;5114926;27;20177;-37
2021/03/23 01:20:16;;;;;;;6.68;5.25;;;6.80;65.50;;;;;;5114308;28;20069;-36
2021/03/23 01:22:42;;;;;;;5.68;4.63;;;6.70;65.60;;;;;;5114220;28;20019;-36
2021/03/23 01:25:09;;;;;;;9.65;5.63;;;6.70;65.90;;;;;;5114424;28;20519;-36
2021/03/23 01:27:35;;;;;;;11.57;7.88;;;6.90;65.30;;;;;;5112795;28;20031;-37
2021/03/23 01:30:01;;;;;;;11.98;8.82;;;6.80;66.10;;;;;;5114106;28;20030;-37
2021/03/23 01:32:26;;;;;;;19.25;11.85;;;6.70;66.70;;;;;;5114281;28;20027;-37
2021/03/23 01:34:52;;;;;;;16.95;10.00;;;6.80;67.30;;;;;;5113985;28;20035;-36
2021/03/23 01:37:19;;;;;;;14.02;9.68;;;6.70;67.80;;;;;;5114007;28;20016;-37
2021/03/23 01:39:44;;;;;;;18.75;10.95;;;6.80;67.50;;;;;;5114579;28;20042;-37
2021/03/23 01:42:16;;;;;;;17.25;10.65;;;6.80;67.50;;;;;;5113895;28;20016;-37
2021/03/23 01:44:44;;;;;;;17.20;10.52;;;6.60;68.30;;;;;;5113911;28;20024;-37
2021/03/23 01:47:10;;;;;;;17.73;11.50;;;6.70;68.40;;;;;;5113862;28;20093;-36
2021/03/23 01:49:41;;;;;;;22.67;13.55;;;6.70;68.80;;;;;;5113906;28;20024;-36
2021/03/23 01:52:18;;;;;;;18.70;10.18;;;6.80;68.90;;;;;;5112809;28;20122;-36
2021/03/23 01:54:56;;;;;;;16.52;11.90;;;6.60;69.60;;;;;;5113623;27;20054;-36
2021/03/23 01:57:22;;;;;;;18.65;12.00;;;6.70;69.90;;;;;;5113947;28;20020;-37
2021/03/23 01:59:52;;;;;;;18.08;12.13;;;6.70;70.00;;;;;;5113466;28;20027;-37
2021/03/23 02:02:22;;;;;;;;;;;6.70;69.90;;;;;;5113011;28;20069;-37
2021/03/23 02:04:48;;;;;;;19.17;10.95;;;6.60;70.10;;;;;;5113455;28;19911;-37
2021/03/23 02:07:13;;;;;;;18.25;12.32;;;6.70;69.90;;;;;;5113149;28;20028;-36
2021/03/23 02:09:39;;;;;;;19.10;12.48;;;6.80;69.90;;;;;;5113285;28;20024;-36
2021/03/23 02:12:12;;;;;;;21.08;11.82;;;6.90;69.30;;;;;;5113266;28;20030;-36
2021/03/23 02:14:41;;;;;;;20.77;13.65;;;6.70;70.20;;;;;;5113471;28;20379;-36
2021/03/23 02:17:22;;;;;;;18.92;12.90;;;6.50;70.90;;;;;;5113441;28;20410;-36
2021/03/23 02:19:49;;;;;;;;;;;6.60;71.20;;;;;;5113639;28;20023;-36
2021/03/23 02:22:31;;;;;;;20.27;12.60;;;6.60;71.70;;;;;;5113488;28;20326;-37
2021/03/23 02:24:58;;;;;;;22.35;14.80;;;6.60;71.60;;;;;;5112055;28;20020;-36
2021/03/23 02:27:26;;;;;;;24.83;14.70;;;6.80;71.50;;;;;;5113053;28;20032;-37
2021/03/23 02:29:55;;;;;;;22.30;13.65;;;6.70;71.40;;;;;;5113708;28;20024;-37
2021/03/23 02:32:21;;;;;;;27.58;15.18;;;6.70;71.70;;;;;;5113382;28;20039;-37
2021/03/23 02:34:47;;;;;;;22.20;13.20;;;6.70;72.20;;;;;;5113643;28;20035;-37
2021/03/23 02:37:13;;;;;;;27.38;13.60;;;6.40;72.70;;;;;;5113624;28;20015;-36
2021/03/23 02:39:38;;;;;;;23.88;14.52;;;6.50;72.30;;;;;;5113656;28;20026;-36
2021/03/23 02:42:05;;;;;;;22.77;15.48;;;6.50;72.40;;;;;;5113272;28;20023;-36
2021/03/23 02:44:43;;;;;;;23.13;13.52;;;6.60;72.40;;;;;;5113257;28;20479;-37
2021/03/23 02:47:10;;;;;;;22.80;13.70;;;6.70;70.80;;;;;;5113098;28;20513;-37
2021/03/23 02:49:36;;;;;;;29.23;14.20;;;6.60;70.40;;;;;;5113292;28;20479;-37
2021/03/23 02:52:03;;;;;;;21.35;14.15;;;6.60;69.40;;;;;;5113200;28;20024;-38
2021/03/23 02:54:28;;;;;;;19.77;13.48;;;6.80;69.10;;;;;;5113007;28;20027;-37
2021/03/23 02:56:54;;;;;;;19.63;12.43;;;6.80;68.10;;;;;;5113687;28;20101;-37
2021/03/23 02:59:19;;;;;;;20.45;13.88;;;6.80;67.80;;;;;;5113072;28;20020;-36
2021/03/23 03:01:45;;;;;;;17.25;12.63;;;6.80;66.20;;;;;;5112976;28;20076;-36
2021/03/23 03:04:11;;;;;;;20.20;12.82;;;6.80;66.10;;;;;;5112127;28;20020;-36
2021/03/23 03:06:37;;;;;;;18.20;12.23;;;6.80;66.00;;;;;;5113137;28;20108;-37
2021/03/23 03:09:04;;;;;;;18.25;13.35;;;6.80;66.00;;;;;;5113074;28;20487;-36
2021/03/23 03:11:30;;;;;;;17.58;12.60;;;6.80;65.90;;;;;;5113066;28;20361;-37
2021/03/23 03:13:56;;;;;;;22.52;12.82;;;6.80;65.80;;;;;;5113222;28;20055;-37
2021/03/23 03:16:22;;;;;;;29.67;13.07;;;6.70;65.90;;;;;;5113337;28;20030;-37
2021/03/23 03:18:47;;;;;;;16.80;11.70;;;6.70;65.80;;;;;;5113212;28;20011;-36
2021/03/23 03:21:13;;;;;;;19.58;13.95;;;6.80;65.10;;;;;;5116152;28;20035;-36
2021/03/23 03:23:39;;;;;;;16.40;12.40;;;6.80;65.60;;;;;;5116823;28;20028;-36
2021/03/23 03:26:06;;;;;;;18.00;12.95;;;6.90;65.50;;;;;;5116403;28;20427;-37
2021/03/23 03:28:32;;;;;;;19.92;12.57;;;6.70;66.20;;;;;;5117286;28;20081;-37
2021/03/23 03:30:58;;;;;;;19.65;13.65;;;6.50;67.00;;;;;;5116451;28;20028;-37
2021/03/23 03:33:24;;;;;;;22.42;15.18;;;6.80;66.60;;;;;;5116311;28;20043;-36
2021/03/23 03:35:51;;;;;;;21.80;12.85;;;6.60;67.20;;;;;;5116405;27;20103;-36
2021/03/23 03:38:19;;;;;;;24.83;14.05;;;6.50;67.70;;;;;;5116303;28;20023;-37
2021/03/23 03:40:52;;;;;;;21.55;13.88;;;6.70;67.10;;;;;;5116331;28;20020;-36
2021/03/23 03:43:19;;;;;;;20.20;14.10;;;6.60;67.20;;;;;;5114995;28;20407;-37
2021/03/23 03:45:45;;;;;;;23.02;14.27;;;6.60;67.40;;;;;;5114954;28;20034;-37
2021/03/23 03:48:11;;;;;;;19.77;13.63;;;6.70;66.90;;;;;;5116195;28;20131;-37
2021/03/23 03:50:37;;;;;;;20.38;14.02;;;6.70;67.20;;;;;;5116302;28;20161;-37
2021/03/23 03:53:03;;;;;;;21.42;14.50;;;6.50;67.80;;;;;;5116242;28;20019;-37
2021/03/23 03:55:32;;;;;;;20.45;13.75;;;6.50;67.60;;;;;;5115937;28;20069;-37
2021/03/23 03:57:58;;;;;;;21.35;14.77;;;6.60;67.30;;;;;;5114566;28;20024;-36
2021/03/23 04:00:29;;;;;;;20.67;14.48;;;6.60;67.30;;;;;;5116155;28;20030;-37
2021/03/23 04:02:55;;;;;;;19.10;13.07;;;6.50;67.60;;;;;;5116127;28;20028;-37
2021/03/23 04:05:24;;;;;;;21.25;14.23;;;6.60;67.30;;;;;;5115939;28;20031;-36
2021/03/23 04:07:50;;;;;;;22.15;14.27;;;6.60;67.60;;;;;;5115965;28;20115;-36
2021/03/23 04:10:17;;;;;;;23.45;14.63;;;6.50;67.90;;;;;;5115641;28;20102;-36
2021/03/23 04:12:42;;;;;;;21.15;13.73;;;6.60;67.80;;;;;;5115543;28;20037;-36
2021/03/23 04:15:10;;;;;;;23.10;15.00;;;6.50;68.10;;;;;;5115574;28;20031;-37
2021/03/23 04:17:35;;;;;;;21.52;13.85;;;6.30;69.60;;;;;;5115807;28;20051;-36
2021/03/23 04:20:01;;;;;;;22.63;14.88;;;6.50;68.80;;;;;;5115502;28;20028;-37
2021/03/23 04:22:27;;;;;;;22.38;15.07;;;6.50;68.70;;;;;;5114307;28;20016;-36
2021/03/23 04:24:52;;;;;;;24.75;14.27;;;6.50;68.80;;;;;;5114162;28;20027;-37
2021/03/23 04:27:18;;;;;;;21.45;14.73;;;6.40;69.10;;;;;;5115561;28;20031;-37
2021/03/23 04:29:44;;;;;;;22.45;14.73;;;6.40;69.40;;;;;;5115715;28;20032;-38
2021/03/23 04:32:09;;;;;;;27.48;14.35;;;6.40;69.50;;;;;;5115341;28;20080;-37
2021/03/23 04:34:35;;;;;;;24.58;16.38;;;6.50;69.00;;;;;;5115105;28;20114;-37
2021/03/23 04:37:01;;;;;;;23.95;15.57;;;6.50;69.00;;;;;;5115382;28;20106;-37
2021/03/23 04:39:26;;;;;;;21.23;14.18;;;6.50;68.90;;;;;;5115360;28;20020;-38
2021/03/23 04:41:52;;;;;;;22.45;14.85;;;6.50;68.80;;;;;;5115141;28;20020;-36
2021/03/23 04:44:18;;;;;;;32.92;18.23;;;6.50;68.90;;;;;;5115005;28;20494;-38
2021/03/23 04:46:43;;;;;;;24.88;15.57;;;6.50;69.20;;;;;;5115067;28;20020;-39
2021/03/23 04:49:09;;;;;;;24.83;15.13;;;6.50;69.20;;;;;;5114902;28;20043;-36
2021/03/23 04:51:34;;;;;;;31.02;16.33;;;6.40;69.60;;;;;;5114794;28;20024;-36
2021/03/23 04:54:03;;;;;;;27.23;16.10;;;6.30;69.90;;;;;;5114775;28;20104;-37
2021/03/23 04:56:32;;;;;;;23.33;14.60;;;6.30;70.40;;;;;;5115096;28;20015;-37
2021/03/23 04:58:58;;;;;;;26.83;17.17;;;6.20;70.60;;;;;;5115002;28;20034;-37
2021/03/23 05:01:24;;;;;;;29.30;16.38;;;6.30;70.50;;;;;;5114967;28;20028;-37
2021/03/23 05:03:59;;;;;;;27.80;16.58;;;6.40;69.50;;;;;;5114896;28;20076;-36
2021/03/23 05:06:25;;;;;;;30.10;16.92;;;6.50;69.40;;;;;;5114907;28;20061;-37
2021/03/23 05:08:51;;;;;;;27.33;14.82;;;6.50;69.30;;;;;;5114936;28;20042;-38
2021/03/23 05:11:22;;;;;;;27.48;15.60;;;6.50;69.20;;;;;;5114506;28;20102;-37
2021/03/23 05:13:47;;;;;;;22.80;14.45;;;6.80;68.70;;;;;;5114454;28;20059;-37
2021/03/23 05:16:14;;;;;;;22.70;13.82;;;6.80;68.50;;;;;;5114723;28;20051;-36
2021/03/23 05:18:39;;;;;;;26.08;17.08;;;6.30;70.10;;;;;;5114572;28;20069;-37
2021/03/23 05:21:09;;;;;;;24.83;15.52;;;6.40;69.60;;;;;;5114280;28;20392;-37
2021/03/23 05:23:35;;;;;;;24.33;16.58;;;6.30;70.50;;;;;;5113041;28;20020;-36
2021/03/23 05:26:02;;;;;;;25.95;16.60;;;6.20;71.00;;;;;;5114438;28;20495;-37
2021/03/23 05:28:27;;;;;;;29.90;17.42;;;6.30;70.70;;;;;;5114342;28;20112;-36
2021/03/23 05:30:54;;;;;;;27.52;15.90;;;6.10;70.90;;;;;;5114162;28;20466;-37
2021/03/23 05:33:20;;;;;;;25.25;16.25;;;6.20;71.20;;;;;;5114228;28;20034;-36
2021/03/23 05:35:48;;;;;;;27.73;16.02;;;6.20;71.10;;;;;;5114032;28;20497;-36
2021/03/23 05:38:18;;;;;;;25.85;16.60;;;6.10;71.10;;;;;;5114344;28;20489;-36
2021/03/23 05:40:47;;;;;;;25.48;15.90;;;6.20;71.20;;;;;;5113947;28;20023;-37
2021/03/23 05:43:31;;;;;;;28.48;15.90;;;6.20;71.50;;;;;;5113549;28;20015;-37
2021/03/23 05:46:26;;;;;;;25.80;15.27;;;6.10;71.70;;;;;;5114366;28;20495;-38
2021/03/23 05:48:57;;;;;;;21.90;14.55;;;6.10;71.70;;;;;;5113715;28;20043;-37
2021/03/23 05:51:28;;;;;;;24.10;14.68;;;6.20;71.30;;;;;;5114061;28;20407;-36
2021/03/23 05:54:16;;;;;;;25.48;14.77;;;6.30;71.60;;;;;;5114516;28;20023;-36
2021/03/23 05:56:44;;;;;;;37.05;16.20;;;6.30;71.20;;;;;;5113713;28;20016;-37
2021/03/23 05:59:17;;;;;;;29.15;17.25;;;6.50;70.40;;;;;;5113220;28;20020;-36
2021/03/23 06:01:56;;;;;;;29.98;15.93;;;6.50;70.50;;;;;;5113754;28;20023;-37
2021/03/23 06:04:43;;;;;;;25.60;15.63;;;6.60;69.70;;;;;;5113707;28;20481;-37
2021/03/23 06:07:13;;;;;;;27.30;15.75;;;6.60;70.10;;;;;;5113854;28;20024;-37
2021/03/23 06:09:40;;;;;;;34.42;15.20;;;6.60;69.90;;;;;;5113557;28;20026;-36
2021/03/23 06:12:15;;;;;;;22.35;14.65;;;6.50;70.20;;;;;;5113490;28;20031;-36
2021/03/23 06:14:49;;;;;;;27.00;14.23;;;6.50;70.40;;;;;;5113669;28;20363;-37
2021/03/23 06:17:42;;;;;;;23.65;15.00;;;6.60;69.90;;;;;;5113461;28;20179;-37
2021/03/23 06:20:24;;;;;;;27.70;14.02;;;6.70;70.30;;;;;;5113190;28;20019;-36
2021/03/23 06:23:14;;;;;;;23.77;14.07;;;6.90;68.80;;;;;;5113377;28;20020;-37
2021/03/23 06:26:08;;;;;;;27.17;15.00;;;6.80;68.90;;;;;;5113417;28;20495;-36
2021/03/23 06:28:54;;;;;;;29.83;16.23;;;6.80;69.00;;;;;;5113568;28;20257;-37
2021/03/23 06:32:13;;;;;;;27.25;14.88;;;7.10;68.20;;;;;;5113646;28;20479;-38
2021/03/23 06:34:39;;;;;;;27.02;13.95;;;6.80;69.10;;;;;;5070535;28;20044;-37
2021/03/23 06:37:31;;;;;;;27.33;15.18;;;6.80;69.40;;;;;;5104547;28;20035;-37
2021/03/23 06:39:59;;;;;;;24.13;14.90;;;6.80;69.00;;;;;;5113367;28;20404;-37
2021/03/23 06:42:43;;;;;;;33.08;17.02;;;6.80;69.40;;;;;;5113411;28;20028;-38
2021/03/23 06:45:18;;;;;;;30.10;15.65;;;6.70;69.60;;;;;;5113950;28;20024;-36
2021/03/23 06:47:44;;;;;;;30.63;16.30;;;6.80;69.30;;;;;;5112971;28;20039;-37
2021/03/23 06:50:21;;;;;;;26.38;14.68;;;6.90;68.90;;;;;;5113399;28;20077;-36
2021/03/23 06:53:12;;;;;;;27.80;15.07;;;6.70;69.80;;;;;;5113452;28;20023;-37
2021/03/23 06:55:40;;;;;;;24.38;15.00;;;6.80;69.50;;;;;;5117220;28;20024;-36
2021/03/23 06:58:28;;;;;;;31.92;16.52;;;7.00;68.50;;;;;;5116044;28;20023;-37
2021/03/23 07:01:15;;;;;;;30.45;17.23;;;6.80;69.70;;;;;;5117450;28;20019;-37
2021/03/23 07:03:42;;;;;;;27.42;16.65;;;6.90;68.70;;;;;;5116781;28;20510;-36
2021/03/23 07:06:28;;;;;;;35.03;17.23;;;6.90;68.90;;;;;;5117030;28;20020;-37
2021/03/23 07:09:12;;;;;;;31.40;17.58;;;7.00;68.90;;;;;;5116740;28;20058;-37
2021/03/23 07:12:02;;;;;;;32.40;16.98;;;7.00;68.80;;;;;;5116939;28;20023;-38
2021/03/23 07:14:29;;;;;;;34.00;18.33;;;6.80;69.40;;;;;;5116689;28;20132;-37
2021/03/23 07:17:12;;;;;;;34.35;18.23;;;7.00;68.60;;;;;;5116611;28;20028;-37
2021/03/23 07:19:57;;;;;;;39.13;17.63;;;6.90;68.90;;;;;;5116587;28;20051;-36
2021/03/23 07:22:40;;;;;;;35.08;18.73;;;7.00;68.90;;;;;;5116778;28;20011;-37
2021/03/23 07:25:34;;;;;;;33.20;18.63;;;7.10;68.30;;;;;;5117120;28;20027;-37
2021/03/23 07:28:21;;;;;;;39.00;19.38;;;7.00;68.70;;;;;;5116848;28;20023;-37
2021/03/23 07:30:55;;;;;;;39.33;20.42;;;7.30;67.70;;;;;;5116755;28;20023;-37
2021/03/23 07:33:49;;;;;;;36.58;18.80;;;7.40;67.00;;;;;;5116542;28;20031;-37
2021/03/23 07:36:23;;;;;;;34.88;18.60;;;7.50;67.20;;;;;;5115046;28;20060;-37
2021/03/23 07:38:49;;;;;;;33.80;17.42;;;7.80;66.20;;;;;;5116328;27;20371;-37
2021/03/23 07:41:29;;;;;;;36.33;21.63;;;7.60;67.00;;;;;;5115921;28;20030;-37
2021/03/23 07:44:05;;;;;;;45.95;23.00;;;7.50;67.10;;;;;;5115942;28;20070;-37
2021/03/23 07:46:38;;;;;;;46.15;24.40;;;7.60;66.80;;;;;;5116250;28;20124;-37
2021/03/23 07:49:18;;;;;;;33.83;19.60;;;7.60;67.40;;;;;;5116068;28;20081;-37
2021/03/23 07:51:54;;;;;;;38.28;20.88;;;7.80;66.80;;;;;;5116081;28;20495;-36
2021/03/23 07:54:28;;;;;;;34.60;19.10;;;7.90;66.00;;;;;;5115818;28;20024;-37
2021/03/23 07:57:35;;;;;;;39.25;21.30;;;8.00;65.60;;;;;;5116031;28;20467;-37
2021/03/23 08:00:31;;;;;;;39.05;19.80;;;8.30;65.10;;;;;;5072592;28;20087;-37
2021/03/23 08:03:08;;;;;;;38.85;19.75;;;8.40;64.20;;;;;;5085634;27;20475;-37
2021/03/23 08:06:20;;;;;;;37.13;19.00;;;8.20;65.30;;;;;;5115167;28;20058;-36
2021/03/23 08:09:04;;;;;;;37.53;21.08;;;8.10;65.10;;;;;;5083661;28;20032;-37
2021/03/23 08:12:07;;;;;;;41.47;20.90;;;8.20;65.50;;;;;;5115808;28;20019;-37
2021/03/23 08:14:52;;;;;;;37.25;19.67;;;8.30;65.20;;;;;;5115621;28;20031;-38
2021/03/23 08:17:29;;;;;;;34.58;19.00;;;8.30;64.50;;;;;;5114151;28;20421;-37
2021/03/23 08:20:26;;;;;;;37.22;18.48;;;8.50;64.60;;;;;;5115929;28;20095;-37
2021/03/23 08:23:09;;;;;;;34.40;18.77;;;8.50;64.50;;;;;;5116082;28;20348;-37
2021/03/23 08:25:49;;;;;;;36.83;19.58;;;8.60;63.70;;;;;;5115846;28;20052;-36
2021/03/23 08:28:14;;;;;;;31.90;18.33;;;8.70;64.20;;;;;;5115483;28;20027;-36
2021/03/23 08:30:53;;;;;;;29.42;17.00;;;8.80;64.10;;;;;;5115574;28;20106;-36
2021/03/23 08:33:21;;;;;;;36.30;20.38;;;9.00;62.10;;;;;;5114893;28;20030;-36
2021/03/23 08:36:05;;;;;;;38.90;21.05;;;8.70;63.50;;;;;;5114928;28;20483;-37
2021/03/23 08:38:47;;;;;;;34.22;20.80;;;8.40;64.30;;;;;;5115047;28;20024;-36
2021/03/23 08:41:49;;;;;;;41.75;20.20;;;8.80;64.20;;;;;;5114849;28;20027;-36
2021/03/23 08:44:44;;;;;;;28.50;13.15;;;9.30;61.40;;;;;;5103358;28;20519;-36
2021/03/23 08:47:23;;;;;;;44.53;21.63;;;8.50;63.80;;;;;;5107778;28;20077;-36
2021/03/23 08:49:50;;;;;;;53.13;22.80;;;8.70;64.10;;;;;;5114343;28;20020;-36
2021/03/23 08:52:33;;;;;;;36.78;20.52;;;9.00;62.80;;;;;;5114019;28;20495;-36
2021/03/23 08:54:59;;;;;;;39.65;21.85;;;9.30;61.70;;;;;;5114529;28;20386;-36
2021/03/23 08:57:49;;;;;;;41.03;21.80;;;9.40;61.60;;;;;;5114270;28;20444;-37
2021/03/23 09:00:40;;;;;;;46.72;23.95;;;9.60;61.20;;;;;;5113891;28;20020;-37
2021/03/23 09:03:09;;;;;;;42.72;20.23;;;9.40;61.80;;;;;;5113860;28;20020;-36
2021/03/23 09:05:50;;;;;;;34.90;20.88;;;9.20;62.30;;;;;;5114452;28;20024;-37
2021/03/23 09:08:53;;;;;;;58.28;23.98;;;9.50;61.50;;;;;;5114581;28;20157;-37
2021/03/23 09:11:19;;;;;;;44.45;21.23;;;10.40;59.00;;;;;;5081832;28;20048;-38
2021/03/23 09:14:03;;;;;;;40.22;21.33;;;10.70;57.90;;;;;;5112410;28;20436;-37
2021/03/23 09:16:54;;;;;;;45.70;24.38;;;9.80;60.50;;;;;;5113347;28;20016;-37
2021/03/23 09:19:34;;;;;;;;;;;10.10;60.20;;;;;;5114333;28;20026;-37
2021/03/23 09:22:00;;;;;;;39.55;20.80;;;10.30;59.30;;;;;;5113891;28;19911;-37
2021/03/23 09:24:35;;;;;;;41.85;20.80;;;9.90;60.80;;;;;;5113963;28;20032;-37
2021/03/23 09:27:04;;;;;;;47.67;21.48;;;10.20;60.20;;;;;;5113703;28;20024;-38
2021/03/23 09:29:33;;;;;;;38.30;20.70;;;10.60;58.60;;;;;;5114264;28;20359;-36
2021/03/23 09:32:17;;;;;;;43.25;23.02;;;10.10;60.30;;;;;;5113696;28;20050;-36
2021/03/23 09:35:01;;;;;;;47.45;23.20;;;10.30;60.00;;;;;;5113677;28;20026;-37
2021/03/23 09:37:48;;;;;;;51.08;21.30;;;10.90;58.00;;;;;;5113869;28;20023;-36
2021/03/23 09:40:17;;;;;;;39.85;21.13;;;11.40;57.00;;;;;;5114131;28;20107;-37
2021/03/23 09:42:45;;;;;;;45.65;22.65;;;11.10;57.50;;;;;;5112819;28;20409;-37
2021/03/23 09:45:11;;;;;;;42.17;20.65;;;11.70;55.40;;;;;;5113625;28;20102;-37
2021/03/23 09:47:38;;;;;;;38.83;20.85;;;11.30;56.50;;;;;;5113221;28;20127;-38
2021/03/23 09:50:20;;;;;;;33.60;21.23;;;11.20;57.30;;;;;;5113758;28;20123;-38
2021/03/23 09:52:46;;;;;;;44.85;20.70;;;11.60;55.80;;;;;;5113985;28;20076;-36
2021/03/23 09:55:12;;;;;;;36.88;21.05;;;11.50;57.10;;;;;;5113275;28;20356;-37
2021/03/23 09:57:51;;;;;;;32.95;18.80;;;12.30;53.60;;;;;;5113262;28;20027;-38
2021/03/23 10:00:31;;;;;;;30.35;19.08;;;12.30;53.30;;;;;;5113770;28;20027;-38
2021/03/23 10:02:57;;;;;;;32.92;20.15;;;11.80;55.60;;;;;;5114158;28;20026;-38
2021/03/23 10:05:34;;;;;;;36.72;19.23;;;11.80;54.90;;;;;;5113304;28;20103;-37
2021/03/23 10:08:18;;;;;;;34.25;19.13;;;11.80;54.90;;;;;;5113279;28;20027;-37
2021/03/23 10:10:44;;;;;;;37.85;19.08;;;12.20;53.60;;;;;;5113131;28;20026;-38
2021/03/23 10:13:36;;;;;;;33.50;18.42;;;13.00;52.10;;;;;;5113250;28;20084;-38
2021/03/23 10:16:07;;;;;;;36.38;20.23;;;13.30;50.90;;;;;;5111200;28;20414;-37
2021/03/23 10:18:39;;;;;;;34.55;18.70;;;12.80;51.30;;;;;;5113486;28;20012;-37
2021/03/23 10:21:11;;;;;;;35.70;18.35;;;12.70;52.70;;;;;;5113378;28;20436;-38
2021/03/23 10:23:55;;;;;;;26.83;15.52;;;13.40;49.90;;;;;;5111607;28;20145;-37
2021/03/23 10:26:21;;;;;;;30.15;16.23;;;14.20;46.90;;;;;;5111486;28;20019;-37
2021/03/23 10:28:48;;;;;;;26.33;16.08;;;12.60;51.20;;;;;;5114183;28;20413;-37
2021/03/23 10:31:29;;;;;;;25.77;15.20;;;13.00;50.40;;;;;;5117187;28;20453;-37
2021/03/23 10:34:03;;;;;;;29.40;15.70;;;12.30;52.20;;;;;;5117579;28;20494;-38
2021/03/23 10:36:41;;;;;;;29.13;15.88;;;12.20;53.10;;;;;;5117225;28;20028;-37
2021/03/23 10:39:30;;;;;;;31.38;15.90;;;12.50;52.20;;;;;;5115819;28;20026;-37
2021/03/23 10:41:58;;;;;;;31.00;16.48;;;13.40;49.50;;;;;;5116900;28;20039;-37
2021/03/23 10:44:29;;;;;;;29.00;16.90;;;13.80;48.20;;;;;;5116950;28;20092;-37
2021/03/23 10:46:58;;;;;;;30.90;16.08;;;13.70;48.80;;;;;;5119816;28;20444;-37
2021/03/23 10:49:31;;;;;;;33.13;16.75;;;12.80;50.80;;;;;;5117408;28;20080;-37
2021/03/23 10:52:00;;;;;;;27.77;16.45;;;13.00;50.40;;;;;;5117164;28;20028;-37
2021/03/23 10:54:34;;;;;;;28.42;15.13;;;13.30;50.10;;;;;;5116282;28;20024;-37
2021/03/23 10:57:25;;;;;;;28.63;16.55;;;12.60;51.50;;;;;;5116777;28;20023;-37
2021/03/23 11:00:14;;;;;;;25.88;16.27;;;13.30;50.80;;;;;;5116963;28;20069;-38
2021/03/23 11:02:39;;;;;;;39.03;17.42;;;13.60;48.80;;;;;;5116221;28;20024;-37
2021/03/23 11:05:12;;;;;;;27.23;13.77;;;12.60;52.10;;;;;;5116545;28;20144;-37
2021/03/23 11:08:01;;;;;;;34.65;16.48;;;12.30;52.40;;;;;;5114872;28;20391;-37
2021/03/23 11:10:31;;;;;;;37.22;17.83;;;11.90;53.30;;;;;;5116254;28;20088;-37
2021/03/23 11:12:57;;;;;;;25.13;15.90;;;11.90;54.00;;;;;;5115977;27;20034;-37
2021/03/23 11:15:23;;;;;;;30.23;16.17;;;12.20;53.40;;;;;;5116510;28;20032;-38
2021/03/23 11:17:51;;;;;;;24.95;15.65;;;12.60;52.50;;;;;;5116208;28;20073;-37
2021/03/23 11:20:27;;;;;;;26.13;15.10;;;12.90;51.90;;;;;;5114825;28;20469;-37
2021/03/23 11:22:56;;;;;;;27.88;16.35;;;12.80;51.50;;;;;;5116340;28;20026;-37
2021/03/23 11:25:24;;;;;;;28.90;15.57;;;12.00;53.50;;;;;;5116529;28;20144;-37
2021/03/23 11:27:51;;;;;;;22.00;14.60;;;12.30;53.30;;;;;;5116501;28;20050;-37
2021/03/23 11:30:18;;;;;;;24.80;14.43;;;12.00;53.80;;;;;;5116312;28;20020;-37
2021/03/23 11:32:45;;;;;;;21.27;13.27;;;12.30;53.80;;;;;;5116817;28;20490;-37
2021/03/23 11:35:11;;;;;;;18.73;12.70;;;12.70;52.30;;;;;;5116041;28;20035;-37
2021/03/23 11:37:37;;;;;;;24.73;14.23;;;12.40;52.60;;;;;;5116275;28;20090;-37
2021/03/23 11:40:04;;;;;;;28.30;15.65;;;12.30;53.60;;;;;;5113229;28;20442;-36
2021/03/23 11:42:37;;;;;;;29.42;14.98;;;13.10;51.70;;;;;;5115570;28;20016;-37
2021/03/23 11:45:21;;;;;;;23.80;14.25;;;13.70;49.60;;;;;;5116066;28;20102;-37
2021/03/23 11:47:56;;;;;;;22.92;16.08;;;13.30;50.50;;;;;;5116058;28;20384;-37
2021/03/23 11:50:25;;;;;;;25.52;14.02;;;12.70;52.40;;;;;;5116195;28;20031;-37
2021/03/23 11:52:53;;;;;;;22.45;13.70;;;12.30;53.30;;;;;;5116027;28;20019;-37
2021/03/23 11:55:23;;;;;;;23.27;14.75;;;12.30;53.80;;;;;;5116035;28;20031;-37
2021/03/23 11:57:50;;;;;;;28.10;13.30;;;12.40;54.20;;;;;;5114098;28;20037;-37
2021/03/23 12:00:16;;;;;;;22.60;13.88;;;13.00;52.20;;;;;;5115790;28;20085;-37
2021/03/23 12:02:43;;;;;;;27.35;15.55;;;12.20;54.20;;;;;;5115534;27;20023;-37
2021/03/23 12:05:10;;;;;;;26.90;14.32;;;11.80;56.00;;;;;;5115211;28;20441;-37
2021/03/23 12:07:54;;;;;;;25.63;16.17;;;12.40;54.40;;;;;;5115427;28;20390;-37
2021/03/23 12:10:32;;;;;;;29.15;16.45;;;12.60;53.20;;;;;;5115523;28;20155;-37
2021/03/23 12:13:13;;;;;;;22.83;14.75;;;12.20;54.00;;;;;;5116269;28;20019;-37
2021/03/23 12:15:45;;;;;;;25.70;14.85;;;12.40;53.40;;;;;;5115516;27;20028;-37
2021/03/23 12:18:15;;;;;;;23.27;14.93;;;12.40;53.80;;;;;;5115246;28;20022;-37
2021/03/23 12:20:43;;;;;;;27.60;16.70;;;13.50;51.30;;;;;;5115265;28;20028;-37
2021/03/23 12:23:10;;;;;;;27.15;15.75;;;13.50;50.70;;;;;;5114861;28;20670;-37
2021/03/23 12:25:37;;;;;;;21.27;14.13;;;13.70;50.30;;;;;;5115472;28;20496;-37
2021/03/23 12:28:03;;;;;;;28.65;13.98;;;14.20;49.00;;;;;;5115530;28;20459;-37
2021/03/23 12:30:29;;;;;;;24.25;14.18;;;13.30;51.70;;;;;;5114061;28;20034;-37
2021/03/23 12:32:55;;;;;;;24.92;14.55;;;13.80;50.00;;;;;;5115908;28;20031;-37
2021/03/23 12:35:26;;;;;;;24.63;15.25;;;12.50;53.10;;;;;;5115569;28;20028;-37
2021/03/23 12:37:56;;;;;;;28.60;14.30;;;12.30;54.00;;;;;;5115592;28;20023;-37
2021/03/23 12:40:24;;;;;;;28.02;15.82;;;12.80;54.00;;;;;;5113748;28;20020;-37
2021/03/23 12:42:51;;;;;;;27.00;15.68;;;12.90;52.60;;;;;;5115295;28;20069;-37
2021/03/23 12:45:28;;;;;;;29.48;15.55;;;12.70;52.90;;;;;;5113275;28;20035;-37
2021/03/23 12:47:54;;;;;;;23.00;14.02;;;12.80;53.50;;;;;;5114863;28;20047;-37
2021/03/23 12:50:22;;;;;;;25.52;14.45;;;13.20;52.20;;;;;;5115464;28;20058;-37
2021/03/23 12:52:48;;;;;;;22.35;15.27;;;12.80;53.20;;;;;;5115044;28;20024;-37
2021/03/23 12:55:26;;;;;;;24.50;14.70;;;13.10;52.90;;;;;;5114797;28;20463;-37
2021/03/23 12:57:57;;;;;;;29.15;17.13;;;12.50;54.60;;;;;;5113437;28;20093;-38
2021/03/23 13:00:28;;;;;;;24.63;15.45;;;12.80;54.20;;;;;;5114604;28;20425;-36
2021/03/23 13:02:54;;;;;;;;;;;13.00;53.40;;;;;;5114656;27;20047;-38
2021/03/23 13:05:20;;;;;;;24.00;15.40;;;12.60;53.90;;;;;;5115788;28;19911;-37